createdAt,value
2018-01-15T00:00:16.293Z,14.97
2018-01-15T00:02:43.205Z,15.20
2018-01-15T00:05:10.145Z,15.27
2018-01-15T00:07:37.053Z,14.80
2018-01-15T00:10:04.346Z,16.03
2018-01-15T00:12:31.181Z,14.40
2018-01-15T00:14:58.055Z,16.80
2018-01-15T00:17:24.984Z,17.80
2018-01-15T00:19:51.829Z,15.60
2018-01-15T00:22:18.772Z,14.70
2018-01-15T00:24:45.624Z,14.57
2018-01-15T00:27:12.464Z,15.23
2018-01-15T00:29:39.412Z,16.60
2018-01-15T00:32:06.410Z,15.13
2018-01-15T00:34:33.657Z,15.17
2018-01-15T00:37:00.964Z,17.27
2018-01-15T00:39:27.921Z,16.00
2018-01-15T00:41:54.768Z,13.97
2018-01-15T00:44:21.708Z,14.77
2018-01-15T00:46:48.558Z,13.87
2018-01-15T00:49:15.500Z,13.87
2018-01-15T00:51:42.438Z,15.53
2018-01-15T00:54:09.276Z,14.90
2018-01-15T00:56:36.228Z,15.87
2018-01-15T00:59:03.088Z,13.30
2018-01-15T01:01:30.018Z,14.83
2018-01-15T01:03:56.968Z,13.70
2018-01-15T01:06:23.816Z,14.10
2018-01-15T01:08:50.757Z,14.60
2018-01-15T01:11:17.697Z,13.83
2018-01-15T01:13:44.548Z,14.20
2018-01-15T01:16:11.413Z,16.13
2018-01-15T01:18:38.332Z,15.20
2018-01-15T01:21:05.197Z,15.27
2018-01-15T01:23:32.121Z,17.23
2018-01-15T01:25:59.077Z,14.10
2018-01-15T01:28:25.928Z,17.20
2018-01-15T01:30:52.777Z,15.77
2018-01-15T01:33:19.704Z,13.70
2018-01-15T01:35:46.586Z,15.57
2018-01-15T01:38:13.421Z,15.10
2018-01-15T01:40:40.333Z,14.13
2018-01-15T01:43:07.292Z,16.83
2018-01-15T01:45:34.248Z,13.23
2018-01-15T01:48:01.093Z,16.00
2018-01-15T01:50:28.032Z,15.03
2018-01-15T01:52:54.876Z,16.83
2018-01-15T01:55:21.816Z,14.03
2018-01-15T01:57:48.768Z,14.50
2018-01-15T02:00:15.808Z,18.47
2018-01-15T02:02:42.661Z,18.10
2018-01-15T02:05:09.537Z,15.90
2018-01-15T02:07:36.408Z,18.10
2018-01-15T02:10:03.265Z,17.53
2018-01-15T02:12:30.128Z,16.93
2018-01-15T02:14:57.003Z,16.17
2018-01-15T02:17:23.924Z,15.50
2018-01-15T02:19:50.868Z,13.20
2018-01-15T02:22:17.720Z,16.77
2018-01-15T02:24:44.663Z,15.53
2018-01-15T02:27:11.520Z,18.00
2018-01-15T02:29:38.549Z,14.60
2018-01-15T02:32:05.500Z,16.03
2018-01-15T02:34:32.339Z,19.63
2018-01-15T02:36:59.284Z,15.70
2018-01-15T02:39:26.230Z,14.93
2018-01-15T02:41:53.080Z,14.13
2018-01-15T02:44:20.020Z,15.10
2018-01-15T02:46:46.905Z,15.33
2018-01-15T02:49:13.822Z,17.07
2018-01-15T02:51:40.761Z,13.60
2018-01-15T02:54:07.704Z,14.50
2018-01-15T02:56:34.558Z,14.67
2018-01-15T02:59:01.413Z,18.90
2018-01-15T03:01:28.353Z,14.40
2018-01-15T03:03:55.288Z,13.80
2018-01-15T03:06:22.233Z,14.33
2018-01-15T03:08:49.181Z,15.40
2018-01-15T03:11:16.029Z,14.50
2018-01-15T03:13:42.904Z,17.03
2018-01-15T03:16:09.819Z,15.37
2018-01-15T03:18:36.701Z,14.70
2018-01-15T03:21:03.541Z,13.70
2018-01-15T03:23:30.400Z,14.23
2018-01-15T03:25:57.696Z,14.30
2018-01-15T03:28:24.540Z,14.10
2018-01-15T03:30:51.405Z,13.80
2018-01-15T03:33:18.256Z,14.50
2018-01-15T03:35:45.146Z,15.10
2018-01-15T03:38:12.438Z,16.47
2018-01-15T03:40:39.277Z,15.27
2018-01-15T03:43:06.219Z,15.33
2018-01-15T03:45:33.174Z,14.57
2018-01-15T03:48:00.029Z,13.97
2018-01-15T03:50:26.885Z,14.37
2018-01-15T03:52:53.812Z,14.30
2018-01-15T03:55:20.654Z,14.87
2018-01-15T03:57:47.598Z,14.90
2018-01-15T04:00:14.545Z,14.17
2018-01-15T04:02:41.494Z,16.17
2018-01-15T04:05:08.344Z,14.50
2018-01-15T04:07:35.197Z,14.53
2018-01-15T04:10:02.129Z,24.03
2018-01-15T04:12:29.072Z,14.07
2018-01-15T04:14:56.020Z,16.23
2018-01-15T04:17:22.966Z,14.80
2018-01-15T04:19:49.830Z,16.53
2018-01-15T04:22:16.752Z,18.07
2018-01-15T04:24:43.706Z,17.73
2018-01-15T04:27:10.644Z,16.43
2018-01-15T04:29:37.800Z,18.27
2018-01-15T04:32:04.753Z,17.43
2018-01-15T04:34:31.680Z,16.60
2018-01-15T04:36:58.505Z,17.23
2018-01-15T04:39:25.385Z,17.37
2018-01-15T04:41:52.837Z,18.20
2018-01-15T04:44:19.676Z,17.10
2018-01-15T04:46:46.524Z,17.00
2018-01-15T04:49:13.474Z,17.27
2018-01-15T04:51:40.713Z,16.77
2018-01-15T04:54:08.129Z,18.40
2018-01-15T04:56:35.388Z,16.50
2018-01-15T04:59:02.693Z,17.07
2018-01-15T05:01:29.648Z,19.10
2018-01-15T05:03:56.584Z,18.73
2018-01-15T05:06:23.636Z,19.53
2018-01-15T05:08:50.493Z,20.07
2018-01-15T05:11:17.354Z,18.10
2018-01-15T05:13:44.790Z,17.83
2018-01-15T05:16:11.724Z,19.70
2018-01-15T05:18:38.682Z,17.23
2018-01-15T05:21:05.625Z,18.27
2018-01-15T05:23:32.481Z,18.80
2018-01-15T05:25:59.412Z,17.10
2018-01-15T05:28:26.341Z,18.53
2018-01-15T05:30:53.185Z,19.00
2018-01-15T05:33:20.049Z,19.47
2018-01-15T05:35:46.991Z,24.80
2018-01-15T05:38:13.848Z,17.60
2018-01-15T05:40:40.784Z,21.47
2018-01-15T05:43:07.728Z,21.03
2018-01-15T05:45:34.663Z,19.60
2018-01-15T05:48:01.525Z,21.20
2018-01-15T05:50:28.369Z,20.17
2018-01-15T05:52:55.303Z,19.43
2018-01-15T05:55:22.158Z,20.43
2018-01-15T05:57:49.109Z,19.53
2018-01-15T06:02:49.906Z,19.07
2018-01-15T06:05:17.184Z,20.00
2018-01-15T06:07:44.041Z,21.37
2018-01-15T06:10:10.896Z,19.70
2018-01-15T06:12:37.761Z,19.97
2018-01-15T06:15:04.693Z,24.70
2018-01-15T06:17:31.628Z,21.10
2018-01-15T06:19:58.472Z,26.43
2018-01-15T06:22:25.417Z,22.83
2018-01-15T06:24:52.423Z,21.17
2018-01-15T06:27:19.220Z,19.57
2018-01-15T06:29:46.155Z,20.23
2018-01-15T06:32:13.016Z,21.00
2018-01-15T06:34:39.900Z,23.23
2018-01-15T06:37:07.176Z,21.10
2018-01-15T06:39:34.047Z,20.27
2018-01-15T06:42:01.169Z,24.10
2018-01-15T06:44:28.562Z,19.30
2018-01-15T06:46:55.436Z,19.80
2018-01-15T06:49:22.302Z,20.73
2018-01-15T06:51:49.691Z,20.93
2018-01-15T06:54:16.642Z,20.07
2018-01-15T06:56:43.493Z,22.87
2018-01-15T06:59:10.432Z,19.70
2018-01-15T07:01:37.374Z,20.80
2018-01-15T07:04:04.234Z,21.30
2018-01-15T07:06:31.090Z,21.77
2018-01-15T07:08:57.980Z,20.43
2018-01-15T07:11:25.216Z,24.10
2018-01-15T07:13:52.539Z,22.27
2018-01-15T07:16:19.394Z,20.97
2018-01-15T07:18:46.326Z,23.10
2018-01-15T07:21:13.185Z,23.00
2018-01-15T07:23:40.116Z,27.93
2018-01-15T07:26:07.156Z,24.27
2018-01-15T07:28:34.030Z,21.23
2018-01-15T07:31:00.957Z,22.30
2018-01-15T07:33:28.032Z,24.73
2018-01-15T07:35:55.035Z,22.30
2018-01-15T07:38:21.860Z,23.03
2018-01-15T07:40:48.837Z,20.67
2018-01-15T07:43:15.788Z,22.63
2018-01-15T07:45:42.728Z,25.10
2018-01-15T07:48:09.681Z,22.17
2018-01-15T07:50:36.624Z,24.30
2018-01-15T07:53:03.576Z,23.03
2018-01-15T07:55:30.452Z,25.27
2018-01-15T07:57:57.366Z,27.73
2018-01-15T08:00:24.239Z,25.00
2018-01-15T08:02:51.101Z,27.23
2018-01-15T08:05:18.349Z,22.13
2018-01-15T08:07:45.662Z,26.17
2018-01-15T08:10:13.147Z,23.90
2018-01-15T08:12:40.002Z,25.43
2018-01-15T08:15:06.881Z,25.50
2018-01-15T08:17:33.762Z,24.90
2018-01-15T08:20:00.702Z,26.70
2018-01-15T08:22:27.644Z,27.80
2018-01-15T08:24:54.597Z,24.40
2018-01-15T08:27:21.444Z,24.07
2018-01-15T08:29:48.382Z,23.90
2018-01-15T08:32:15.242Z,25.80
2018-01-15T08:34:42.113Z,23.40
2018-01-15T08:37:09.117Z,24.80
2018-01-15T08:39:35.968Z,24.63
2018-01-15T08:42:02.917Z,29.93
2018-01-15T08:44:29.861Z,24.83
2018-01-15T08:46:56.721Z,29.47
2018-01-15T08:49:23.697Z,29.03
2018-01-15T08:51:51.005Z,28.40
2018-01-15T08:54:17.850Z,30.17
2018-01-15T08:56:44.704Z,28.10
2018-01-15T08:59:11.568Z,26.30
2018-01-15T09:01:38.421Z,26.07
2018-01-15T09:04:05.685Z,29.73
2018-01-15T09:06:32.996Z,32.40
2018-01-15T09:09:00.023Z,27.87
2018-01-15T09:11:26.864Z,28.80
2018-01-15T09:13:53.729Z,29.23
2018-01-15T09:16:20.678Z,28.50
2018-01-15T09:18:47.523Z,28.60
2018-01-15T09:21:14.485Z,27.67
2018-01-15T09:23:41.496Z,25.70
2018-01-15T09:26:08.348Z,30.03
2018-01-15T09:28:35.363Z,27.20
2018-01-15T09:31:02.234Z,29.40
2018-01-15T09:33:29.101Z,29.90
2018-01-15T09:35:56.033Z,31.63
2018-01-15T09:38:22.897Z,26.33
2018-01-15T09:40:49.753Z,33.87
2018-01-15T09:43:16.818Z,33.37
2018-01-15T09:45:43.634Z,29.03
2018-01-15T09:48:10.527Z,29.33
2018-01-15T09:50:37.821Z,28.03
2018-01-15T09:53:04.773Z,32.53
2018-01-15T09:55:31.619Z,33.27
2018-01-15T09:57:58.564Z,27.90
2018-01-15T10:00:25.504Z,29.33
2018-01-15T10:02:52.376Z,29.47
2018-01-15T10:05:19.289Z,30.73
2018-01-15T10:07:46.253Z,28.63
2018-01-15T10:10:13.106Z,28.83
2018-01-15T10:12:40.016Z,28.80
2018-01-15T10:15:06.876Z,28.63
2018-01-15T10:17:33.828Z,29.30
2018-01-15T10:20:00.772Z,28.37
2018-01-15T10:22:27.646Z,29.17
2018-01-15T10:24:54.556Z,29.63
2018-01-15T10:27:21.429Z,28.30
2018-01-15T10:29:48.292Z,27.77
2018-01-15T10:32:15.620Z,26.60
2018-01-15T10:34:42.942Z,28.40
2018-01-15T10:37:10.493Z,28.50
2018-01-15T10:39:37.538Z,26.90
2018-01-15T10:42:04.414Z,31.10
2018-01-15T10:44:31.283Z,28.47
2018-01-15T10:46:58.152Z,27.70
2018-01-15T10:49:25.662Z,27.60
2018-01-15T10:51:52.601Z,29.07
2018-01-15T10:54:19.560Z,30.70
2018-01-15T10:56:46.616Z,32.20
2018-01-15T10:59:13.452Z,30.07
2018-01-15T11:01:40.305Z,32.67
2018-01-15T11:04:07.166Z,31.83
2018-01-15T11:06:34.008Z,26.87
2018-01-15T11:09:01.666Z,31.20
2018-01-15T11:11:28.520Z,34.00
2018-01-15T11:13:55.397Z,31.73
2018-01-15T11:16:22.269Z,30.23
2018-01-15T11:18:49.222Z,27.63
2018-01-15T11:21:16.161Z,30.03
2018-01-15T11:23:43.107Z,29.73
2018-01-15T11:26:10.149Z,31.37
2018-01-15T11:28:36.974Z,31.23
2018-01-15T11:31:03.818Z,27.80
2018-01-15T11:33:30.784Z,28.17
2018-01-15T11:35:57.730Z,27.70
2018-01-15T11:38:24.569Z,29.50
2018-01-15T11:40:51.520Z,30.90
2018-01-15T11:43:18.467Z,27.97
2018-01-15T11:45:45.305Z,31.20
2018-01-15T11:48:12.271Z,29.83
2018-01-15T11:50:39.213Z,29.80
2018-01-15T11:53:06.080Z,27.57
2018-01-15T11:55:33.100Z,32.13
2018-01-15T11:57:59.956Z,32.97
2018-01-15T12:00:26.901Z,30.60
2018-01-15T12:02:53.787Z,29.90
2018-01-15T12:05:20.656Z,29.97
2018-01-15T12:07:47.501Z,30.20
2018-01-15T12:10:14.375Z,32.37
2018-01-15T12:12:41.330Z,28.50
2018-01-15T12:15:08.277Z,28.60
2018-01-15T12:17:35.143Z,30.70
2018-01-15T12:20:02.084Z,28.10
2018-01-15T12:22:28.998Z,29.50
2018-01-15T12:24:55.853Z,29.53
2018-01-15T12:27:22.716Z,27.93
2018-01-15T12:29:49.738Z,27.80
2018-01-15T12:32:16.587Z,30.13
2018-01-15T12:34:43.672Z,33.20
2018-01-15T12:37:11.406Z,26.40
2018-01-15T12:39:38.369Z,27.60
2018-01-15T12:42:05.240Z,27.43
2018-01-15T12:44:33.363Z,26.60
2018-01-15T12:47:00.213Z,24.70
2018-01-15T12:49:27.469Z,30.80
2018-01-15T12:51:54.316Z,28.60
2018-01-15T12:54:21.189Z,26.57
2018-01-15T12:56:48.097Z,27.53
2018-01-15T12:59:15.153Z,26.90
2018-01-15T13:01:42.004Z,26.30
2018-01-15T13:04:08.948Z,26.20
2018-01-15T13:06:47.723Z,23.97
2018-01-15T13:09:14.986Z,27.60
2018-01-15T13:11:41.866Z,28.53
2018-01-15T13:14:08.813Z,28.67
2018-01-15T13:16:35.746Z,27.97
2018-01-15T13:19:02.613Z,27.87
2018-01-15T13:21:29.644Z,31.50
2018-01-15T13:23:56.588Z,26.73
2018-01-15T13:26:23.432Z,26.87
2018-01-15T13:28:50.385Z,27.00
2018-01-15T13:31:17.322Z,27.97
2018-01-15T13:33:44.178Z,28.30
2018-01-15T13:36:11.120Z,26.43
2018-01-15T13:38:37.969Z,28.20
2018-01-15T13:41:04.833Z,31.53
2018-01-15T13:43:31.712Z,28.43
2018-01-15T13:45:58.980Z,28.20
2018-01-15T13:48:25.864Z,26.17
2018-01-15T13:50:52.743Z,29.07
2018-01-15T13:53:19.649Z,27.33
2018-01-15T13:55:46.588Z,27.10
2018-01-15T13:58:13.466Z,26.77
2018-01-15T14:00:40.310Z,27.57
2018-01-15T14:03:07.180Z,24.80
2018-01-15T14:05:34.489Z,26.30
2018-01-15T14:08:01.333Z,26.23
2018-01-15T14:10:28.377Z,27.33
2018-01-15T14:12:55.357Z,26.13
2018-01-15T14:15:22.197Z,25.77
2018-01-15T14:17:49.117Z,22.47
2018-01-15T14:20:16.393Z,25.00
2018-01-15T14:22:43.313Z,23.30
2018-01-15T14:25:10.169Z,24.03
2018-01-15T14:27:37.109Z,23.87
2018-01-15T14:30:03.953Z,23.50
2018-01-15T14:32:30.982Z,25.77
2018-01-15T14:34:57.829Z,21.53
2018-01-15T14:37:24.694Z,23.37
2018-01-15T14:39:51.713Z,25.73
2018-01-15T14:42:18.481Z,22.57
2018-01-15T14:44:45.416Z,25.00
2018-01-15T14:47:12.289Z,22.93
2018-01-15T14:49:39.132Z,21.83
2018-01-15T14:52:06.005Z,23.00
2018-01-15T14:54:33.316Z,23.23
2018-01-15T14:57:00.373Z,22.23
2018-01-15T14:59:27.305Z,22.67
2018-01-15T15:01:54.239Z,20.20
2018-01-15T15:04:22.964Z,20.40
2018-01-15T15:06:49.819Z,23.20
2018-01-15T15:09:16.690Z,26.77
2018-01-15T15:11:43.558Z,18.60
2018-01-15T15:14:10.402Z,19.77
2018-01-15T15:16:37.268Z,23.20
2018-01-15T15:19:04.117Z,20.27
2018-01-15T15:21:31.038Z,21.13
2018-01-15T15:23:57.888Z,20.43
2018-01-15T15:26:24.836Z,27.53
2018-01-15T15:28:51.764Z,23.10
2018-01-15T15:31:18.632Z,21.70
2018-01-15T15:33:45.576Z,25.03
2018-01-15T15:36:12.660Z,22.43
2018-01-15T15:38:39.560Z,24.17
2018-01-15T15:41:06.516Z,24.47
2018-01-15T15:43:33.459Z,26.23
2018-01-15T15:46:00.408Z,23.47
2018-01-15T15:48:27.362Z,22.73
2018-01-15T15:50:54.204Z,25.60
2018-01-15T15:53:21.149Z,25.10
2018-01-15T15:55:48.444Z,24.40
2018-01-15T15:58:15.348Z,22.43
2018-01-15T16:00:42.401Z,26.03
2018-01-15T16:03:09.248Z,25.10
2018-01-15T16:05:36.118Z,23.77
2018-01-15T16:08:02.983Z,26.33
2018-01-15T16:10:30.241Z,23.80
2018-01-15T16:12:57.492Z,20.80
2018-01-15T16:15:24.885Z,22.03
2018-01-15T16:17:51.712Z,21.03
2018-01-15T16:20:18.548Z,20.13
2018-01-15T16:22:57.388Z,23.77
2018-01-15T16:25:24.252Z,21.00
2018-01-15T16:27:51.199Z,21.70
2018-01-15T16:30:18.057Z,23.83
2018-01-15T16:32:44.990Z,22.03
2018-01-15T16:35:11.857Z,26.47
2018-01-15T16:37:38.710Z,22.33
2018-01-15T16:40:05.783Z,22.67
2018-01-15T16:42:32.683Z,22.80
2018-01-15T16:44:59.724Z,21.60
2018-01-15T16:47:26.580Z,18.83
2018-01-15T16:49:53.425Z,23.63
2018-01-15T16:52:20.429Z,22.00
2018-01-15T16:54:47.277Z,21.67
2018-01-15T16:57:14.135Z,20.17
2018-01-15T16:59:41.023Z,21.83
2018-01-15T17:02:07.881Z,22.40
2018-01-15T17:04:35.123Z,23.40
2018-01-15T17:07:02.046Z,20.33
2018-01-15T17:09:29.073Z,23.20
2018-01-15T17:11:56.028Z,22.50
2018-01-15T17:14:22.881Z,20.50
2018-01-15T17:16:49.756Z,23.17
2018-01-15T17:19:16.629Z,18.57
2018-01-15T17:21:43.522Z,21.80
2018-01-15T17:24:10.392Z,19.37
2018-01-15T17:26:37.296Z,21.50
2018-01-15T17:29:04.256Z,19.03
2018-01-15T17:31:31.216Z,18.73
2018-01-15T17:33:58.144Z,20.20
2018-01-15T17:36:25.497Z,17.40
2018-01-15T17:38:52.532Z,20.47
2018-01-15T17:41:19.375Z,31.70
2018-01-15T17:43:46.336Z,20.83
2018-01-15T17:46:13.281Z,20.70
2018-01-15T17:48:40.128Z,21.07
2018-01-15T17:51:07.074Z,21.13
2018-01-15T17:53:34.012Z,21.03
2018-01-15T17:56:00.967Z,22.23
2018-01-15T17:58:27.833Z,19.93
2018-01-15T18:00:54.813Z,18.60
2018-01-15T18:03:22.113Z,22.03
2018-01-15T18:05:49.053Z,18.63
2018-01-15T18:08:15.904Z,23.23
2018-01-15T18:10:42.854Z,21.07
2018-01-15T18:13:09.805Z,23.70
2018-01-15T18:15:36.652Z,21.40
2018-01-15T18:18:03.590Z,21.93
2018-01-15T18:20:30.477Z,23.47
2018-01-15T18:22:57.380Z,20.63
2018-01-15T18:25:24.321Z,22.13
2018-01-15T18:27:51.197Z,23.43
2018-01-15T18:30:18.104Z,19.63
2018-01-15T18:32:44.950Z,26.37
2018-01-15T18:35:11.823Z,22.77
2018-01-15T18:37:38.749Z,22.13
2018-01-15T18:40:05.639Z,24.63
2018-01-15T18:42:32.945Z,24.13
2018-01-15T18:44:59.892Z,21.80
2018-01-15T18:47:26.842Z,23.73
2018-01-15T18:49:53.694Z,30.30
2018-01-15T18:52:20.629Z,25.07
2018-01-15T18:54:47.548Z,20.33
2018-01-15T18:57:14.416Z,21.17
2018-01-15T18:59:41.468Z,26.30
2018-01-15T19:02:08.436Z,22.27
2018-01-15T19:04:35.435Z,21.13
2018-01-15T19:07:02.410Z,25.53
2018-01-15T19:09:29.363Z,24.90
2018-01-15T19:11:56.283Z,23.07
2018-01-15T19:14:23.153Z,22.80
2018-01-15T19:16:50.234Z,22.43
2018-01-15T19:19:17.242Z,23.43
2018-01-15T19:21:44.282Z,19.53
2018-01-15T19:24:11.137Z,23.90
2018-01-15T19:26:37.988Z,24.23
2018-01-15T19:29:04.861Z,19.67
2018-01-15T19:31:31.761Z,19.93
2018-01-15T19:33:58.614Z,18.00
2018-01-15T19:36:25.477Z,19.80
2018-01-15T19:38:52.319Z,15.67
2018-01-15T19:41:19.252Z,16.57
2018-01-15T19:43:46.201Z,18.00
2018-01-15T19:46:13.137Z,17.70
2018-01-15T19:48:40.407Z,16.73
2018-01-15T19:51:07.344Z,17.27
2018-01-15T19:53:34.292Z,15.67
2018-01-15T19:56:01.236Z,15.70
2018-01-15T19:58:28.236Z,20.00
2018-01-15T20:00:55.641Z,16.13
2018-01-15T20:03:22.490Z,14.90
2018-01-15T20:05:49.522Z,16.97
2018-01-15T20:08:16.376Z,15.70
2018-01-15T20:10:43.216Z,15.10
2018-01-15T20:13:10.096Z,14.13
2018-01-15T20:15:36.984Z,15.10
2018-01-15T20:18:03.829Z,13.97
2018-01-15T20:20:30.717Z,13.57
2018-01-15T20:22:57.646Z,17.13
2018-01-15T20:25:24.486Z,14.03
2018-01-15T20:27:51.441Z,15.30
2018-01-15T20:30:18.289Z,13.10
2018-01-15T20:32:45.170Z,14.00
2018-01-15T20:35:12.477Z,13.03
2018-01-15T20:37:39.429Z,10.90
2018-01-15T20:40:06.281Z,14.37
2018-01-15T20:42:33.148Z,8.57
2018-01-15T20:44:59.991Z,4.93
2018-01-15T20:47:26.836Z,2.63
2018-01-15T20:49:53.704Z,2.40
2018-01-15T20:52:20.964Z,1.77
2018-01-15T20:54:48.261Z,1.97
2018-01-15T20:57:15.208Z,1.80
2018-01-15T20:59:42.196Z,1.77
2018-01-15T21:02:09.513Z,1.97
2018-01-15T21:04:36.551Z,3.07
2018-01-15T21:07:03.412Z,2.10
2018-01-15T21:09:30.278Z,1.50
2018-01-15T21:11:57.137Z,1.50
2018-01-15T21:14:24.540Z,1.70
2018-01-15T21:16:51.385Z,1.40
2018-01-15T21:19:18.236Z,2.77
2018-01-15T21:21:45.185Z,1.80
2018-01-15T21:24:12.024Z,1.20
2018-01-15T21:26:38.973Z,1.70
2018-01-15T21:29:05.913Z,1.80
2018-01-15T21:31:32.865Z,1.50
2018-01-15T21:33:59.728Z,1.27
2018-01-15T21:36:26.672Z,1.30
2018-01-15T21:38:53.608Z,1.40
2018-01-15T21:41:20.444Z,1.40
2018-01-15T21:43:47.400Z,1.70
2018-01-15T21:46:14.269Z,1.60
2018-01-15T21:48:41.181Z,1.87
2018-01-15T21:51:08.124Z,1.30
2018-01-15T21:53:34.964Z,1.70
2018-01-15T21:56:01.921Z,1.67
2018-01-15T21:58:28.864Z,1.93
2018-01-15T22:00:55.705Z,1.50
2018-01-15T22:03:22.752Z,1.70
2018-01-15T22:05:49.709Z,1.10
2018-01-15T22:08:16.656Z,1.70
2018-01-15T22:10:43.596Z,1.50
2018-01-15T22:13:10.454Z,1.53
2018-01-15T22:15:37.313Z,1.47
2018-01-15T22:18:04.233Z,10.80
2018-01-15T22:20:31.187Z,1.33
2018-01-15T22:22:58.054Z,1.10
2018-01-15T22:25:25.066Z,1.50
2018-01-15T22:27:52.013Z,1.20
2018-01-15T22:30:18.906Z,0.90
2018-01-15T22:32:46.212Z,1.37
2018-01-15T22:35:13.152Z,1.77
2018-01-15T22:37:40.173Z,1.20
2018-01-15T22:40:07.052Z,1.43
2018-01-15T22:42:33.996Z,0.80
2018-01-15T22:45:00.948Z,1.30
2018-01-15T22:47:27.897Z,1.13
2018-01-15T22:49:54.840Z,1.20
2018-01-15T22:52:21.785Z,1.27
2018-01-15T22:54:48.728Z,0.77
2018-01-15T22:57:15.672Z,1.20
2018-01-15T22:59:42.624Z,0.90
2018-01-15T23:02:09.569Z,0.90
2018-01-15T23:04:36.516Z,0.90
2018-01-15T23:07:03.741Z,0.80
2018-01-15T23:09:30.988Z,0.80
2018-01-15T23:11:58.276Z,1.80
2018-01-15T23:14:25.221Z,0.77
2018-01-15T23:16:52.084Z,1.17
2018-01-15T23:19:18.924Z,0.87
2018-01-15T23:21:45.861Z,0.83
2018-01-15T23:24:12.808Z,1.23
2018-01-15T23:26:39.757Z,1.40
2018-01-15T23:29:06.696Z,1.53
2018-01-15T23:31:33.641Z,1.90
2018-01-15T23:34:00.488Z,1.20
2018-01-15T23:36:27.328Z,1.20
2018-01-15T23:38:54.257Z,1.30
2018-01-15T23:41:21.124Z,1.00
2018-01-15T23:43:47.983Z,1.43
2018-01-15T23:46:14.916Z,0.87
2018-01-15T23:48:41.861Z,0.90
2018-01-15T23:51:08.921Z,1.00
2018-01-15T23:53:35.853Z,0.80
2018-01-15T23:56:02.714Z,0.80
2018-01-15T23:58:29.552Z,1.10
